Bombay Beach, California
Current Conditions -  °F | °C
As of 4:53 AM on Saturday 25 Oct 2014 (Local Time) from KIPL Reporting Station
Few Clouds Few Clouds  
Wind Chill: 70°   Ceiling: Unl
Heat Index: 70°   Visibility: 10mi
Dew Point: 49°   Wind: 0mph
Humidity: 47%   Direction: NA
Pressure: 29.9"   Gusts: NA
Location:  33.3324°N, 115.621°W
Report Text: KIPL 251153Z AUTO 00000KT 10SM FEW100 21/09 A2990 RMK AO2 SLP125 T02110094 10244 20211 55006
Loading
Personal Weather Stations






























Interactive Weather Map
Tropical Storm Tracking
New forecast layout! Learn more

10-Day Weather Forecast

Advertisements
Track Severe Weather on mobile